Pretty Hana — DSQJ5 — position and weather

sailwx.info

Track history (hours):
 
Tides and Currents Weather Stations Pressure Air Temp Water Temp Dewpoint Dewpoint Depression Visibility Wind Speed Wind Dir Waves Ship Positions

Pretty Hana

Last reported at 2014-Nov-19 18:33 UTC. Time now 2014-Nov-24 15:21 UTC.
Position N 31°02' E 122°15'.

Length 65 m; draft 4.6 m.

Type: Tanker. MMSI: 441600000.

Date/timePositionNaut miles runAvg speedWind from/ knotsBaromVisibWave heightAir tempDewpointWater temp
2014-Nov-19 18:33N 31°02' E 122°15'1111.4
2014-Nov-19 17:33N 31°05' E 122°02'1111.5
2014-Nov-19 16:33N 31°11' E 121°50'10 9.8
2014-Nov-19 15:34N 31°18' E 121°43'9 8.7
2014-Nov-19 14:34N 31°23' E 121°34'8 7.7
2014-Nov-19 13:33N 31°28' E 121°27'9 9.1
2014-Nov-19 12:33N 31°34' E 121°19'1111.3
2014-Nov-19 11:34N 31°41' E 121°09'1211.6
2014-Nov-19 10:34N 31°47' E 120°57'1211.5
2014-Nov-19 09:33N 31°57' E 120°52'1110.5
2014-Nov-19 08:33N 31°60' E 120°39'1010.3
2014-Nov-19 07:34N 32°04' E 120°28'9 9.2
2014-Nov-19 06:33N 31°58' E 120°20'9 9.3
2014-Nov-19 05:33N 31°56' E 120°09'1010.2
2014-Nov-19 04:32N 32°00' E 119°58'  
2014-Nov-16 09:09N 32°04' E 119°56'5 9.3
2014-Nov-16 08:33N 31°60' E 119°59'9 9.2
2014-Nov-16 07:33N 31°56' E 120°09'8 8.6
2014-Nov-16 06:33N 31°58' E 120°19'9 9.2
2014-Nov-16 05:34N 32°02' E 120°29'10 9.4
2014-Nov-16 04:33N 32°00' E 120°40'9 8.7
2014-Nov-16 03:33N 31°59' E 120°50'1010.4
2014-Nov-16 02:33N 31°50' E 120°55'6 5.3
2014-Nov-16 01:28N 31°46' E 120°60'0 0.0
2014-Nov-16 00:28N 31°46' E 120°60'0 0.0
2014-Nov-15 23:31N 31°46' E 120°60'0 0.0
2014-Nov-15 22:31N 31°46' E 120°60'0 0.0
2014-Nov-15 21:31N 31°46' E 120°60'0 0.0
2014-Nov-15 20:28N 31°46' E 120°60'0 0.0
2014-Nov-15 19:31N 31°46' E 120°60'0 0.0
2014-Nov-15 18:13N 31°46' E 120°60'0 0.0
2014-Nov-15 17:19N 31°46' E 120°60'0 0.0
2014-Nov-15 16:25N 31°46' E 120°60'0 0.0
2014-Nov-15 14:13N 31°46' E 120°60'0 0.0
2014-Nov-15 10:28N 31°46' E 120°60'8 8.1
2014-Nov-15 09:31N 31°43' E 121°08'1010.5
2014-Nov-15 08:33N 31°36' E 121°17'1010.4
2014-Nov-15 07:33N 31°29' E 121°26'9 9.1
2014-Nov-15 06:33N 31°24' E 121°34'10 9.6
2014-Nov-15 05:33N 31°18' E 121°44'9 9.4
2014-Nov-15 04:33N 31°11' E 121°51'9 8.7
2014-Nov-15 03:33N 31°06' E 121°59'9 9.4
2014-Nov-15 02:33N 31°03' E 122°10'9 9.4
2014-Nov-15 01:33N 31°04' E 122°21'  
Track history (hours):
 
Tides and Currents Weather Stations Pressure Air Temp Water Temp Dewpoint Dewpoint Depression Visibility Wind Speed Wind Dir Waves Ship Positions

Pretty Hana

Last reported at 2014-Nov-19 18:33 UTC. Time now 2014-Nov-24 15:21 UTC.
Position N 31°02' E 122°15'.

Length 65 m; draft 4.6 m.

Type: Tanker. MMSI: 441600000.

Date/timePositionNaut miles runAvg speedWind from/ knotsBaromVisibWave heightAir tempDewpointWater temp
2014-Nov-19 18:33N 31°02' E 122°15'1111.4
2014-Nov-19 17:33N 31°05' E 122°02'1111.5
2014-Nov-19 16:33N 31°11' E 121°50'10 9.8
2014-Nov-19 15:34N 31°18' E 121°43'9 8.7
2014-Nov-19 14:34N 31°23' E 121°34'8 7.7
2014-Nov-19 13:33N 31°28' E 121°27'9 9.1
2014-Nov-19 12:33N 31°34' E 121°19'1111.3
2014-Nov-19 11:34N 31°41' E 121°09'1211.6
2014-Nov-19 10:34N 31°47' E 120°57'1211.5
2014-Nov-19 09:33N 31°57' E 120°52'1110.5
2014-Nov-19 08:33N 31°60' E 120°39'1010.3
2014-Nov-19 07:34N 32°04' E 120°28'9 9.2
2014-Nov-19 06:33N 31°58' E 120°20'9 9.3
2014-Nov-19 05:33N 31°56' E 120°09'1010.2
2014-Nov-19 04:32N 32°00' E 119°58'  
2014-Nov-16 09:09N 32°04' E 119°56'5 9.3
2014-Nov-16 08:33N 31°60' E 119°59'9 9.2
2014-Nov-16 07:33N 31°56' E 120°09'8 8.6
2014-Nov-16 06:33N 31°58' E 120°19'9 9.2
2014-Nov-16 05:34N 32°02' E 120°29'10 9.4
2014-Nov-16 04:33N 32°00' E 120°40'9 8.7
2014-Nov-16 03:33N 31°59' E 120°50'1010.4
2014-Nov-16 02:33N 31°50' E 120°55'6 5.3
2014-Nov-16 01:28N 31°46' E 120°60'0 0.0
2014-Nov-16 00:28N 31°46' E 120°60'0 0.0
2014-Nov-15 23:31N 31°46' E 120°60'0 0.0
2014-Nov-15 22:31N 31°46' E 120°60'0 0.0
2014-Nov-15 21:31N 31°46' E 120°60'0 0.0
2014-Nov-15 20:28N 31°46' E 120°60'0 0.0
2014-Nov-15 19:31N 31°46' E 120°60'0 0.0
2014-Nov-15 18:13N 31°46' E 120°60'0 0.0
2014-Nov-15 17:19N 31°46' E 120°60'0 0.0
2014-Nov-15 16:25N 31°46' E 120°60'0 0.0
2014-Nov-15 14:13N 31°46' E 120°60'0 0.0
2014-Nov-15 10:28N 31°46' E 120°60'8 8.1
2014-Nov-15 09:31N 31°43' E 121°08'1010.5
2014-Nov-15 08:33N 31°36' E 121°17'1010.4
2014-Nov-15 07:33N 31°29' E 121°26'9 9.1
2014-Nov-15 06:33N 31°24' E 121°34'10 9.6
2014-Nov-15 05:33N 31°18' E 121°44'9 9.4
2014-Nov-15 04:33N 31°11' E 121°51'9 8.7
2014-Nov-15 03:33N 31°06' E 121°59'9 9.4
2014-Nov-15 02:33N 31°03' E 122°10'9 9.4
2014-Nov-15 01:33N 31°04' E 122°21'  

Dump ship's entire track history